Time;durP1;ratioP1;P1;durP2;ratioP2;P2;SDS_P1;SDS_P2;PMS_P1;PMS_P2;Temp;Humidity;BMP_temperature;BMP_pressure;BME280_temperature;BME280_humidity;BME280_pressure;Samples;Min_cycle;Max_cycle;Signal;HPM_P1;HPM_P2
2020/12/04 00:00:07;;;;;;;44.55;24.55;;;-0.70;1.00;;;;;;5029344;28;21118;-75
2020/12/04 00:02:34;;;;;;;38.53;24.92;;;-0.70;1.00;;;;;;5039425;28;20222;-75
2020/12/04 00:05:00;;;;;;;40.28;24.67;;;-0.70;1.00;;;;;;5035765;28;20663;-75
2020/12/04 00:07:28;;;;;;;38.45;23.20;;;-0.70;1.00;;;;;;5031559;28;20226;-74
2020/12/04 00:09:54;;;;;;;39.15;23.70;;;-0.80;1.00;;;;;;5033390;28;20237;-75
2020/12/04 00:12:20;;;;;;;38.45;24.33;;;-0.80;1.00;;;;;;5040121;28;20221;-75
2020/12/04 00:14:47;;;;;;;37.63;24.27;;;-0.80;1.00;;;;;;5039510;28;20225;-75
2020/12/04 00:17:13;;;;;;;37.20;22.75;;;-0.80;1.00;;;;;;5038041;28;20237;-75
2020/12/04 00:19:39;;;;;;;39.20;22.55;;;-0.80;1.00;;;;;;5032465;28;20245;-75
2020/12/04 00:22:05;;;;;;;39.80;23.42;;;-0.80;1.00;;;;;;5038277;28;20222;-75
2020/12/04 00:24:32;;;;;;;40.10;25.17;;;-0.80;1.00;;;;;;5033175;28;20288;-74
2020/12/04 00:26:59;;;;;;;34.47;22.63;;;-0.90;1.00;;;;;;5031776;28;21151;-74
2020/12/04 00:29:27;;;;;;;33.80;22.13;;;-0.90;1.00;;;;;;5030704;28;20337;-74
2020/12/04 00:31:53;;;;;;;34.13;24.00;;;-0.90;1.00;;;;;;5031368;28;20225;-74
2020/12/04 00:34:20;;;;;;;39.15;23.73;;;-0.90;1.00;;;;;;5025427;28;20337;-74
2020/12/04 00:36:47;;;;;;;36.22;22.35;;;-0.90;1.00;;;;;;5028260;28;21282;-74
2020/12/04 00:39:13;;;;;;;39.97;21.77;;;-0.90;1.00;;;;;;5010295;28;20250;-74
2020/12/04 00:41:41;;;;;;;40.45;23.00;;;-0.90;1.00;;;;;;5023552;28;20301;-74
2020/12/04 00:44:07;;;;;;;31.30;20.67;;;-1.00;1.00;;;;;;5015344;28;20242;-75
2020/12/04 00:46:35;;;;;;;36.33;22.95;;;-1.00;1.00;;;;;;5030802;28;20222;-75
2020/12/04 00:49:01;;;;;;;30.92;21.75;;;-1.00;1.00;;;;;;5033875;28;20257;-75
2020/12/04 00:51:28;;;;;;;36.05;21.77;;;-1.00;1.00;;;;;;5027438;28;20226;-74
2020/12/04 00:53:54;;;;;;;31.50;21.45;;;-1.00;1.00;;;;;;5033410;28;20314;-74
2020/12/04 00:56:21;;;;;;;30.75;20.33;;;-1.00;1.00;;;;;;5023876;28;20225;-74
2020/12/04 00:58:48;;;;;;;36.10;21.85;;;-1.10;1.00;;;;;;5032765;28;20230;-74
2020/12/04 01:01:15;;;;;;;35.90;22.85;;;-1.10;1.00;;;;;;5033577;28;20346;-74
2020/12/04 01:03:41;;;;;;;38.67;23.58;;;-1.10;1.00;;;;;;5032099;28;20242;-75
2020/12/04 01:06:11;;;;;;;37.60;22.88;;;-1.00;1.00;;;;;;5032706;28;20788;-75
2020/12/04 01:08:38;;;;;;;33.83;19.05;;;-1.00;1.00;;;;;;5036056;28;20226;-74
2020/12/04 01:11:04;;;;;;;37.03;19.50;;;-1.00;1.00;;;;;;5040943;28;21089;-74
2020/12/04 01:13:30;;;;;;;35.60;20.13;;;-1.00;1.00;;;;;;5033102;28;20233;-75
2020/12/04 01:15:57;;;;;;;28.25;19.38;;;-1.00;1.00;;;;;;5033456;28;20309;-73
2020/12/04 01:18:24;;;;;;;35.85;21.50;;;-1.00;1.00;;;;;;5035863;28;20986;-75
2020/12/04 01:20:50;;;;;;;35.47;21.70;;;-1.00;1.00;;;;;;5035220;28;20305;-75
2020/12/04 01:23:16;;;;;;;30.70;20.50;;;-1.00;1.00;;;;;;5024919;28;20273;-74
2020/12/04 01:25:42;;;;;;;31.30;20.15;;;-1.00;1.00;;;;;;5035384;28;20289;-76
2020/12/04 01:28:08;;;;;;;32.58;23.30;;;-1.00;1.00;;;;;;5034088;28;20305;-73
2020/12/04 01:30:34;;;;;;;31.67;19.00;;;-1.00;1.00;;;;;;5041194;28;20217;-74
2020/12/04 01:33:01;;;;;;;27.27;21.08;;;-1.00;1.00;;;;;;5036149;28;20311;-73
2020/12/04 01:35:28;;;;;;;33.28;23.08;;;-1.00;1.00;;;;;;5030799;28;20321;-75
2020/12/04 01:37:54;;;;;;;34.08;20.88;;;-1.00;1.00;;;;;;5036066;28;20300;-76
2020/12/04 01:40:21;;;;;;;31.88;20.55;;;-1.00;1.00;;;;;;5031224;28;20277;-76
2020/12/04 01:42:47;;;;;;;32.60;21.70;;;-1.00;1.00;;;;;;5034063;28;20225;-75
2020/12/04 01:45:13;;;;;;;32.88;21.00;;;-1.00;1.00;;;;;;5038894;28;20234;-76
2020/12/04 01:47:40;;;;;;;30.85;19.73;;;-1.00;1.00;;;;;;5049555;28;20282;-74
2020/12/04 01:50:07;;;;;;;30.77;18.92;;;-1.00;1.00;;;;;;5039050;28;20226;-74
2020/12/04 01:52:33;;;;;;;32.33;21.55;;;-1.00;1.00;;;;;;5026114;28;20222;-73
2020/12/04 01:55:01;;;;;;;29.83;19.83;;;-1.00;1.00;;;;;;5029701;28;20218;-73
2020/12/04 01:57:33;;;;;;;36.33;24.05;;;-1.00;1.00;;;;;;5024955;28;20222;-73
2020/12/04 01:59:59;;;;;;;34.90;22.48;;;-1.00;1.00;;;;;;5030118;28;20261;-74
2020/12/04 02:02:25;;;;;;;36.90;22.02;;;-1.00;1.00;;;;;;5031465;28;20669;-73
2020/12/04 02:04:52;;;;;;;34.08;22.15;;;-1.00;1.00;;;;;;5028777;28;20272;-73
2020/12/04 02:07:28;;;;;;;36.45;23.95;;;-1.00;1.00;;;;;;5029833;28;20231;-75
2020/12/04 02:09:59;;;;;;;33.83;22.80;;;-1.00;1.00;;;;;;5027924;28;20293;-74
2020/12/04 02:12:26;;;;;;;37.30;23.27;;;-1.00;1.00;;;;;;5028892;28;20228;-74
2020/12/04 02:14:53;;;;;;;35.30;23.27;;;-0.90;1.00;;;;;;5024853;28;20226;-75
2020/12/04 02:17:29;;;;;;;37.05;24.25;;;-1.00;1.00;;;;;;5030184;28;20312;-73
2020/12/04 02:19:55;;;;;;;40.33;24.88;;;-1.00;1.00;;;;;;5030258;28;20222;-74
2020/12/04 02:22:22;;;;;;;34.03;23.45;;;-0.90;1.00;;;;;;5031384;28;20225;-74
2020/12/04 02:24:50;;;;;;;33.13;22.85;;;-0.90;1.00;;;;;;5025959;28;20289;-74
2020/12/04 02:27:17;;;;;;;32.88;23.50;;;-0.90;1.00;;;;;;5026442;28;20202;-74
2020/12/04 02:29:43;;;;;;;37.70;23.02;;;-0.80;1.00;;;;;;5040194;28;20249;-74
2020/12/04 02:32:10;;;;;;;36.80;24.58;;;-0.90;1.00;;;;;;5036172;28;20214;-74
2020/12/04 02:34:37;;;;;;;39.10;26.40;;;-0.90;1.00;;;;;;5038564;28;20232;-73
2020/12/04 02:37:05;;;;;;;38.00;25.05;;;-0.80;1.00;;;;;;5056709;28;20210;-75
2020/12/04 02:39:32;;;;;;;36.97;25.20;;;-0.80;1.00;;;;;;5034878;28;20237;-74
2020/12/04 02:41:58;;;;;;;37.83;25.63;;;-0.80;1.00;;;;;;5024435;28;20226;-77
2020/12/04 02:44:25;;;;;;;39.13;25.17;;;-0.80;1.00;;;;;;5049392;28;20241;-74
2020/12/04 02:46:51;;;;;;;35.50;26.05;;;-0.80;1.00;;;;;;5031815;28;20322;-74
2020/12/04 02:49:20;;;;;;;35.40;24.45;;;-0.80;1.00;;;;;;5026746;28;20313;-74
2020/12/04 02:51:47;;;;;;;40.13;25.02;;;-0.80;1.00;;;;;;5012225;28;20277;-76
2020/12/04 02:54:13;;;;;;;32.85;23.52;;;-0.70;1.00;;;;;;5027975;28;20317;-75
2020/12/04 02:56:40;;;;;;;39.67;24.80;;;-0.70;1.00;;;;;;5026991;28;20222;-75
2020/12/04 02:59:06;;;;;;;37.88;23.67;;;-0.70;1.00;;;;;;5022947;28;20218;-75
2020/12/04 03:01:33;;;;;;;38.20;25.20;;;-0.70;1.00;;;;;;5032276;28;20218;-74
2020/12/04 03:03:59;;;;;;;33.35;23.42;;;-0.70;1.00;;;;;;5022698;28;20293;-74
2020/12/04 03:06:25;;;;;;;39.75;24.13;;;-0.70;1.00;;;;;;5035416;28;20225;-74
2020/12/04 03:08:52;;;;;;;34.75;24.42;;;-0.60;1.00;;;;;;5038103;28;20240;-75
2020/12/04 03:11:20;;;;;;;34.92;24.23;;;-0.70;1.00;;;;;;5033531;28;20381;-75
2020/12/04 03:13:48;;;;;;;38.13;25.17;;;-0.60;1.00;;;;;;5036185;28;20238;-74
2020/12/04 03:16:14;;;;;;;35.95;23.25;;;-0.60;1.00;;;;;;5036170;28;20222;-74
2020/12/04 03:18:40;;;;;;;39.88;24.73;;;-0.60;1.00;;;;;;5036148;28;20394;-73
2020/12/04 03:21:07;;;;;;;34.63;22.10;;;-0.60;1.00;;;;;;5039920;28;20225;-75
2020/12/04 03:23:33;;;;;;;37.53;24.83;;;-0.60;1.00;;;;;;5038664;28;21055;-75
2020/12/04 03:25:59;;;;;;;33.88;22.85;;;-0.60;1.00;;;;;;5023348;28;21009;-74
2020/12/04 03:28:25;;;;;;;31.42;22.33;;;-0.60;1.00;;;;;;5028040;28;20309;-73
2020/12/04 03:30:53;;;;;;;37.10;22.88;;;-0.60;1.00;;;;;;5028119;28;20229;-73
2020/12/04 03:33:19;;;;;;;36.83;23.05;;;-0.60;1.00;;;;;;5028726;28;20210;-74
2020/12/04 03:35:45;;;;;;;30.98;21.38;;;-0.60;1.00;;;;;;5033151;28;20226;-73
2020/12/04 03:38:11;;;;;;;37.38;24.45;;;-0.50;1.00;;;;;;5034999;28;20281;-75
2020/12/04 03:40:37;;;;;;;37.58;24.25;;;-0.50;1.00;;;;;;5027523;28;20735;-75
2020/12/04 03:43:04;;;;;;;36.65;23.75;;;-0.50;1.00;;;;;;5034985;28;21003;-75
2020/12/04 03:45:30;;;;;;;33.22;24.75;;;-0.50;1.00;;;;;;5047457;28;20234;-74
2020/12/04 03:47:58;;;;;;;32.78;23.10;;;-0.50;1.00;;;;;;5028063;28;20261;-73
2020/12/04 03:50:24;;;;;;;35.05;23.70;;;-0.50;1.00;;;;;;5032140;28;20291;-73
2020/12/04 03:52:50;;;;;;;35.10;22.85;;;-0.50;1.00;;;;;;5028417;28;20226;-74
2020/12/04 03:55:16;;;;;;;33.53;21.90;;;-0.50;1.00;;;;;;5031614;28;20290;-73
2020/12/04 03:57:42;;;;;;;33.88;22.92;;;-0.40;1.00;;;;;;5030209;28;20233;-74
2020/12/04 04:00:09;;;;;;;34.28;24.27;;;-0.50;1.00;;;;;;5031177;28;20306;-74
2020/12/04 04:02:35;;;;;;;29.60;22.48;;;-0.40;1.00;;;;;;5031897;28;20226;-74
2020/12/04 04:05:02;;;;;;;33.83;23.67;;;-0.40;1.00;;;;;;5030638;28;20244;-74
2020/12/04 04:07:29;;;;;;;34.42;23.63;;;-0.40;1.00;;;;;;5047409;28;20221;-74
2020/12/04 04:09:55;;;;;;;35.55;22.45;;;-0.40;1.00;;;;;;5028250;28;20322;-74
2020/12/04 04:12:22;;;;;;;33.33;22.52;;;-0.40;1.00;;;;;;5043091;28;20226;-73
2020/12/04 04:14:48;;;;;;;38.22;24.17;;;-0.40;1.00;;;;;;5046765;28;20993;-74
2020/12/04 04:17:14;;;;;;;32.03;22.05;;;-0.30;1.00;;;;;;5040933;28;20284;-74
2020/12/04 04:19:41;;;;;;;35.75;25.50;;;-0.30;1.00;;;;;;5042776;28;20238;-72
2020/12/04 04:22:08;;;;;;;35.92;23.40;;;-0.30;1.00;;;;;;5024486;28;20246;-74
2020/12/04 04:24:34;;;;;;;31.85;21.92;;;-0.30;1.00;;;;;;5042349;28;20222;-73
2020/12/04 04:27:01;;;;;;;33.28;23.48;;;-0.30;1.00;;;;;;5037079;28;20224;-74
2020/12/04 04:29:27;;;;;;;31.40;22.30;;;-0.30;1.00;;;;;;5038380;28;21146;-74
2020/12/04 04:31:53;;;;;;;36.20;23.30;;;-0.20;1.00;;;;;;5033917;28;21157;-72
2020/12/04 04:34:20;;;;;;;36.03;24.95;;;-0.20;1.00;;;;;;5039019;28;20225;-74
2020/12/04 04:36:47;;;;;;;38.35;25.13;;;-0.30;1.00;;;;;;5043693;28;21250;-74
2020/12/04 04:39:14;;;;;;;37.20;23.60;;;-0.30;1.00;;;;;;5045172;28;20245;-73
2020/12/04 04:41:40;;;;;;;38.45;26.73;;;-0.40;1.00;;;;;;5037374;28;20253;-74
2020/12/04 04:44:08;;;;;;;37.22;24.45;;;-0.40;1.00;;;;;;5054481;28;20260;-74
2020/12/04 04:46:42;;;;;;;35.85;24.48;;;-0.40;1.00;;;;;;5017217;28;20222;-74
2020/12/04 04:49:12;;;;;;;38.35;25.63;;;-0.40;1.00;;;;;;5025204;28;20222;-73
2020/12/04 04:51:41;;;;;;;36.22;24.38;;;-0.40;1.00;;;;;;5026122;28;20222;-76
2020/12/04 04:54:09;;;;;;;42.05;27.67;;;-0.50;1.00;;;;;;5031647;28;20349;-74
2020/12/04 04:56:36;;;;;;;34.00;24.27;;;-0.50;1.00;;;;;;5028037;28;20229;-74
2020/12/04 04:59:07;;;;;;;39.00;25.85;;;-0.50;1.00;;;;;;5030773;28;20337;-75
2020/12/04 05:01:33;;;;;;;38.90;25.80;;;-0.50;1.00;;;;;;5034148;28;21074;-75
2020/12/04 05:04:00;;;;;;;36.08;24.25;;;-0.50;1.00;;;;;;5032373;28;20238;-74
2020/12/04 05:06:34;;;;;;;37.67;25.13;;;-0.50;1.00;;;;;;5032792;28;20276;-74
2020/12/04 05:09:00;;;;;;;35.30;25.98;;;-0.60;1.00;;;;;;5030311;28;20757;-73
2020/12/04 05:11:27;;;;;;;44.15;35.90;;;-0.60;1.00;;;;;;5027460;28;20232;-74
2020/12/04 05:14:13;;;;;;;48.38;32.70;;;-0.70;1.00;;;;;;5031651;28;20363;-74
2020/12/04 05:16:39;;;;;;;39.05;28.60;;;-0.60;1.00;;;;;;5024979;28;20722;-74
2020/12/04 05:19:06;;;;;;;38.55;26.63;;;-0.70;1.00;;;;;;5014314;28;20238;-74
2020/12/04 05:21:32;;;;;;;36.38;25.75;;;-0.70;1.00;;;;;;5030251;28;20222;-74
2020/12/04 05:23:59;;;;;;;36.38;26.38;;;-0.70;1.00;;;;;;5025274;28;20274;-74
2020/12/04 05:26:30;;;;;;;39.85;27.23;;;-0.70;1.00;;;;;;5024511;28;20277;-74
2020/12/04 05:28:57;;;;;;;39.80;25.75;;;-0.60;1.00;;;;;;5025379;28;20227;-73
2020/12/04 05:31:29;;;;;;;42.17;26.42;;;-0.60;1.00;;;;;;5042230;28;20318;-74
2020/12/04 05:33:55;;;;;;;44.75;26.67;;;-0.60;1.00;;;;;;5044477;28;20213;-74
2020/12/04 05:36:29;;;;;;;37.45;25.48;;;-0.50;1.00;;;;;;5002642;28;20226;-73
2020/12/04 05:38:57;;;;;;;44.60;26.85;;;-0.50;1.00;;;;;;5050567;28;20308;-71
2020/12/04 05:41:24;;;;;;;37.67;25.38;;;-0.50;1.00;;;;;;5024560;28;20226;-72
2020/12/04 05:43:53;;;;;;;39.75;26.20;;;-0.50;1.00;;;;;;5029760;28;20811;-71
2020/12/04 05:46:22;;;;;;;45.70;27.42;;;-0.50;1.00;;;;;;5009069;28;20218;-72
2020/12/04 05:48:57;;;;;;;37.78;25.70;;;-0.40;1.00;;;;;;5026504;28;20273;-72
2020/12/04 05:51:25;;;;;;;36.50;25.08;;;-0.40;1.00;;;;;;5014010;28;20241;-74
2020/12/04 05:53:52;;;;;;;40.35;26.65;;;-0.40;1.00;;;;;;5025867;28;20268;-73
2020/12/04 05:56:19;;;;;;;41.70;26.42;;;-0.40;1.00;;;;;;5013220;28;20222;-73
2020/12/04 05:58:47;;;;;;;38.75;24.35;;;-0.40;1.00;;;;;;5027360;28;20223;-73
2020/12/04 06:01:15;;;;;;;36.50;23.88;;;-0.30;1.00;;;;;;5012370;28;21198;-73
2020/12/04 06:03:42;;;;;;;38.55;26.95;;;-0.30;1.00;;;;;;5034556;28;20325;-73
2020/12/04 06:06:16;;;;;;;39.63;26.65;;;-0.30;1.00;;;;;;5015138;28;20309;-74
2020/12/04 06:08:42;;;;;;;35.47;26.25;;;-0.20;1.00;;;;;;5029495;28;20827;-74
2020/12/04 06:11:09;;;;;;;38.58;23.70;;;-0.20;1.00;;;;;;5024213;28;20250;-73
2020/12/04 06:13:36;;;;;;;39.17;27.13;;;-0.20;1.00;;;;;;5019985;28;20214;-72
2020/12/04 06:16:11;;;;;;;39.67;27.95;;;-0.20;1.00;;;;;;5042201;28;20222;-72
2020/12/04 06:18:37;;;;;;;47.22;27.58;;;-0.20;1.00;;;;;;5033170;28;20304;-75
2020/12/04 06:21:04;;;;;;;34.65;23.45;;;-0.20;1.00;;;;;;5041892;28;20316;-74
2020/12/04 06:23:31;;;;;;;40.72;27.75;;;-0.20;1.00;;;;;;5021359;28;20222;-72
2020/12/04 06:26:03;;;;;;;39.97;26.60;;;-0.20;1.00;;;;;;5033518;28;20269;-72
2020/12/04 06:28:32;;;;;;;40.85;29.85;;;-0.20;1.00;;;;;;5016842;28;20225;-73
2020/12/04 06:31:03;;;;;;;38.00;28.60;;;-0.20;1.00;;;;;;5034633;28;21113;-73
2020/12/04 06:33:31;;;;;;;39.25;25.65;;;-0.10;1.00;;;;;;5012298;28;20234;-73
2020/12/04 06:35:58;;;;;;;38.92;24.65;;;-0.10;1.00;;;;;;5027758;28;20838;-74
2020/12/04 06:38:41;;;;;;;37.22;25.95;;;-0.10;1.00;;;;;;5003606;28;20227;-72
2020/12/04 06:41:28;;;;;;;41.25;29.40;;;-0.10;1.00;;;;;;5029615;28;20325;-72
2020/12/04 06:43:57;;;;;;;35.75;25.15;;;0.10;1.00;;;;;;5011148;28;20268;-73
2020/12/04 06:46:34;;;;;;;35.35;25.70;;;0.10;1.00;;;;;;5040470;28;20273;-74
2020/12/04 06:49:37;;;;;;;42.15;26.90;;;0.10;1.00;;;;;;5021850;28;20222;-72
2020/12/04 06:52:10;;;;;;;41.40;27.80;;;0.10;1.00;;;;;;5046037;28;20213;-72
2020/12/04 06:54:39;;;;;;;37.60;25.95;;;0.30;1.00;;;;;;5018971;28;20226;-73
2020/12/04 06:57:06;;;;;;;39.70;26.90;;;0.40;1.00;;;;;;5022887;28;20340;-73
2020/12/04 06:59:33;;;;;;;44.13;28.60;;;0.60;1.00;;;;;;5025001;28;20233;-72
2020/12/04 07:02:01;;;;;;;37.38;25.35;;;0.60;1.00;;;;;;5029286;28;20274;-74
2020/12/04 07:04:29;;;;;;;40.63;30.38;;;0.50;1.00;;;;;;5018754;28;20469;-72
2020/12/04 07:07:02;;;;;;;37.70;26.40;;;0.60;1.00;;;;;;5030906;28;20294;-72
2020/12/04 07:09:28;;;;;;;37.45;24.35;;;0.60;1.00;;;;;;5020239;28;20300;-73
2020/12/04 07:11:57;;;;;;;36.65;25.60;;;0.50;1.00;;;;;;5029630;28;20297;-74
2020/12/04 07:14:24;;;;;;;41.15;27.70;;;0.50;1.00;;;;;;5014338;28;20229;-73
2020/12/04 07:16:51;;;;;;;38.60;26.27;;;0.40;1.00;;;;;;5025179;28;21094;-74
2020/12/04 07:19:17;;;;;;;34.60;22.85;;;0.50;1.00;;;;;;4990718;28;20249;-74
2020/12/04 07:21:43;;;;;;;36.60;24.98;;;0.50;1.00;;;;;;5027029;28;20217;-73
2020/12/04 07:24:10;;;;;;;32.90;24.73;;;0.50;1.00;;;;;;5024706;28;20249;-74
2020/12/04 07:26:37;;;;;;;34.47;23.13;;;0.60;1.00;;;;;;5030000;28;20226;-73
2020/12/04 07:29:06;;;;;;;41.60;26.85;;;0.60;1.00;;;;;;5021642;28;20248;-73
2020/12/04 07:31:32;;;;;;;32.47;22.92;;;0.60;1.00;;;;;;5025487;28;20220;-72
2020/12/04 07:34:00;;;;;;;33.83;22.65;;;0.60;1.00;;;;;;5042418;28;20223;-73
2020/12/04 07:36:27;;;;;;;36.65;25.58;;;0.60;1.00;;;;;;5025127;28;20240;-74
2020/12/04 07:38:56;;;;;;;38.78;25.25;;;0.60;1.00;;;;;;5032066;28;20223;-73
2020/12/04 07:41:24;;;;;;;48.30;36.20;;;0.60;1.00;;;;;;5003524;28;20983;-75
2020/12/04 07:43:50;;;;;;;37.50;24.92;;;0.60;1.00;;;;;;5028686;28;20327;-72
2020/12/04 07:46:19;;;;;;;34.78;22.98;;;0.70;1.00;;;;;;5020883;28;20218;-74
2020/12/04 07:49:08;;;;;;;38.67;23.85;;;0.70;1.00;;;;;;5032563;28;20217;-72
2020/12/04 07:51:36;;;;;;;34.72;23.52;;;0.70;1.00;;;;;;5018405;28;20337;-73
2020/12/04 07:54:05;;;;;;;35.20;24.02;;;0.70;1.00;;;;;;5027629;28;20261;-74
2020/12/04 07:56:32;;;;;;;38.53;25.55;;;0.80;1.00;;;;;;5013425;28;20242;-71
2020/12/04 07:59:04;;;;;;;35.65;23.90;;;0.90;1.00;;;;;;5021847;28;20687;-73
2020/12/04 08:01:40;;;;;;;34.50;23.40;;;1.00;1.00;;;;;;5012115;28;20213;-72
2020/12/04 08:04:08;;;;;;;31.52;22.65;;;1.00;1.00;;;;;;5028138;28;20292;-73
2020/12/04 08:06:35;;;;;;;32.67;24.67;;;1.00;1.00;;;;;;5015524;28;20218;-71
2020/12/04 08:09:09;;;;;;;30.73;23.90;;;1.10;1.00;;;;;;5030869;28;20235;-72
2020/12/04 08:11:38;;;;;;;38.38;25.30;;;1.20;1.00;;;;;;5013241;28;20218;-72
2020/12/04 08:14:05;;;;;;;35.67;24.95;;;1.20;1.00;;;;;;5010111;28;20336;-70
2020/12/04 08:16:32;;;;;;;26.98;21.33;;;1.30;1.00;;;;;;5009517;28;20213;-72
2020/12/04 08:19:08;;;;;;;35.17;24.40;;;1.40;1.00;;;;;;5031177;28;21008;-73
2020/12/04 08:21:34;;;;;;;33.60;24.52;;;1.50;1.00;;;;;;5013465;28;20837;-73
2020/12/04 08:24:01;;;;;;;35.42;24.27;;;1.60;1.00;;;;;;5029228;28;20222;-73
2020/12/04 08:26:27;;;;;;;33.45;24.00;;;1.70;1.00;;;;;;5014070;28;20316;-74
2020/12/04 08:28:54;;;;;;;30.70;25.13;;;1.80;1.00;;;;;;5020785;28;20226;-73
2020/12/04 08:31:22;;;;;;;30.27;23.50;;;1.80;1.00;;;;;;5018330;28;20223;-72
2020/12/04 08:33:49;;;;;;;30.67;22.92;;;1.90;1.00;;;;;;5009629;28;20300;-72
2020/12/04 08:36:15;;;;;;;34.78;24.45;;;1.90;1.00;;;;;;5022891;28;20220;-74
2020/12/04 08:38:49;;;;;;;36.78;23.42;;;2.00;1.00;;;;;;5019848;28;20353;-72
2020/12/04 08:41:17;;;;;;;36.10;25.52;;;2.00;1.00;;;;;;5029643;28;20226;-73
2020/12/04 08:43:44;;;;;;;29.00;21.45;;;2.00;1.00;;;;;;5011708;28;20218;-73
2020/12/04 08:46:11;;;;;;;30.05;22.30;;;2.00;1.00;;;;;;5022126;28;20250;-72
2020/12/04 08:48:38;;;;;;;27.30;20.08;;;2.10;1.00;;;;;;4996457;28;20230;-72
2020/12/04 08:51:07;;;;;;;27.55;21.10;;;2.20;1.00;;;;;;5020357;28;21237;-74
2020/12/04 08:53:35;;;;;;;30.00;21.80;;;2.30;1.00;;;;;;4996145;28;20253;-72
2020/12/04 08:56:02;;;;;;;31.35;25.77;;;2.60;1.00;;;;;;5019449;28;20300;-72
2020/12/04 08:58:29;;;;;;;27.52;21.45;;;2.70;1.00;;;;;;5018666;28;20305;-72
2020/12/04 09:00:57;;;;;;;30.42;27.17;;;2.80;1.00;;;;;;5035949;28;20290;-71
2020/12/04 09:03:26;;;;;;;31.20;23.63;;;3.00;1.00;;;;;;5021234;28;20230;-73
2020/12/04 09:05:52;;;;;;;27.38;21.88;;;3.00;1.00;;;;;;5043922;28;20289;-75
2020/12/04 09:08:19;;;;;;;26.55;20.45;;;3.10;1.00;;;;;;5015960;28;20710;-74
2020/12/04 09:10:46;;;;;;;30.05;22.00;;;3.00;1.00;;;;;;5023074;28;20272;-73
2020/12/04 09:13:12;;;;;;;27.40;21.35;;;3.00;1.00;;;;;;5024658;28;20223;-73
2020/12/04 09:15:38;;;;;;;29.55;22.38;;;3.00;1.00;;;;;;5023252;28;20222;-72
2020/12/04 09:18:05;;;;;;;27.48;20.02;;;3.00;1.00;;;;;;5026428;28;20329;-72
2020/12/04 09:20:31;;;;;;;29.77;20.45;;;3.10;1.00;;;;;;5012427;28;20704;-73
2020/12/04 09:22:58;;;;;;;27.67;20.30;;;3.30;1.00;;;;;;5025318;28;20257;-72
2020/12/04 09:25:25;;;;;;;26.77;21.45;;;3.40;1.00;;;;;;5014662;28;20335;-72
2020/12/04 09:27:52;;;;;;;27.52;22.20;;;3.50;1.00;;;;;;5032178;28;20649;-72
2020/12/04 09:30:20;;;;;;;28.73;20.27;;;3.60;1.00;;;;;;5015519;28;20312;-72
2020/12/04 09:32:47;;;;;;;24.67;19.67;;;3.70;1.00;;;;;;5041167;28;20222;-71
2020/12/04 09:35:14;;;;;;;26.80;20.15;;;3.80;1.00;;;;;;5015390;28;20308;-72
2020/12/04 09:37:42;;;;;;;25.42;20.02;;;3.90;1.00;;;;;;5032990;28;20222;-73
2020/12/04 09:40:11;;;;;;;26.08;21.58;;;4.10;1.00;;;;;;5012246;28;20509;-72
2020/12/04 09:42:38;;;;;;;25.08;21.40;;;4.20;1.00;;;;;;5034524;28;20261;-72
2020/12/04 09:45:06;;;;;;;26.05;19.20;;;4.40;1.00;;;;;;5015697;28;20754;-71
2020/12/04 09:47:33;;;;;;;27.77;20.90;;;4.50;1.00;;;;;;5034000;28;20380;-71
2020/12/04 09:50:00;;;;;;;30.45;22.60;;;4.40;1.00;;;;;;5016538;28;20230;-72
2020/12/04 09:52:26;;;;;;;24.80;19.45;;;4.40;1.00;;;;;;5046413;28;20249;-73
2020/12/04 09:54:56;;;;;;;20.80;17.25;;;4.50;1.00;;;;;;5033054;28;20230;-72
2020/12/04 09:57:22;;;;;;;27.95;21.58;;;4.60;1.00;;;;;;5035213;28;20222;-73
2020/12/04 09:59:49;;;;;;;24.90;16.85;;;4.70;1.00;;;;;;5043242;28;20226;-72
2020/12/04 10:02:16;;;;;;;19.83;16.13;;;4.70;1.00;;;;;;5006521;28;20229;-72
2020/12/04 10:04:42;;;;;;;24.63;18.40;;;4.60;1.00;;;;;;5027929;28;20240;-71
2020/12/04 10:07:10;;;;;;;23.17;18.00;;;4.60;1.00;;;;;;5012707;28;20306;-73
2020/12/04 10:09:37;;;;;;;20.58;15.95;;;4.60;1.00;;;;;;5034185;28;20265;-72
2020/12/04 10:12:04;;;;;;;20.65;17.20;;;4.70;1.00;;;;;;5014826;28;20222;-73
2020/12/04 10:14:32;;;;;;;20.90;16.85;;;4.70;1.00;;;;;;5033300;28;20224;-72
2020/12/04 10:17:00;;;;;;;22.27;16.75;;;4.70;1.00;;;;;;5012449;28;20297;-71
2020/12/04 10:19:26;;;;;;;22.38;16.90;;;4.60;1.00;;;;;;5041934;28;20241;-72
2020/12/04 10:21:52;;;;;;;22.23;17.27;;;4.60;1.00;;;;;;5029409;28;20220;-72
2020/12/04 10:24:19;;;;;;;23.42;17.85;;;4.60;1.00;;;;;;5025550;28;20238;-72
2020/12/04 10:26:48;;;;;;;22.77;18.70;;;4.70;1.00;;;;;;5010654;28;20215;-71
2020/12/04 10:29:15;;;;;;;21.42;17.48;;;4.60;1.00;;;;;;5014584;28;21344;-71
2020/12/04 10:31:42;;;;;;;26.80;18.85;;;4.60;1.00;;;;;;5013674;28;20309;-71
2020/12/04 10:34:10;;;;;;;23.45;17.05;;;4.60;1.00;;;;;;5029312;28;21053;-72
2020/12/04 10:36:37;;;;;;;21.13;17.75;;;4.60;1.00;;;;;;5017575;28;20228;-71
2020/12/04 10:39:04;;;;;;;20.90;18.38;;;4.60;1.00;;;;;;5021675;28;20741;-72
2020/12/04 10:41:31;;;;;;;26.45;18.33;;;4.60;1.00;;;;;;5029180;28;20857;-74
2020/12/04 10:43:58;;;;;;;20.58;17.52;;;4.50;1.00;;;;;;5006839;28;20288;-72
2020/12/04 10:46:24;;;;;;;19.85;17.60;;;4.50;1.00;;;;;;5032378;28;20284;-74
2020/12/04 10:48:51;;;;;;;22.55;19.35;;;4.60;1.00;;;;;;5010808;28;20364;-73
2020/12/04 10:51:20;;;;;;;24.83;19.02;;;4.60;1.00;;;;;;5032999;28;20300;-73
2020/12/04 10:53:46;;;;;;;20.17;17.73;;;4.80;1.00;;;;;;5012253;28;20227;-72
2020/12/04 10:56:12;;;;;;;20.67;16.75;;;4.90;1.00;;;;;;5031455;28;21107;-71
2020/12/04 10:58:38;;;;;;;22.05;18.70;;;5.00;1.00;;;;;;5019929;28;20315;-73
2020/12/04 11:01:05;;;;;;;21.27;16.70;;;5.10;1.00;;;;;;5039655;28;20270;-72
2020/12/04 11:03:40;;;;;;;24.50;17.98;;;5.20;1.00;;;;;;5006971;28;20236;-71
2020/12/04 11:06:07;;;;;;;19.75;16.83;;;5.20;1.00;;;;;;5031569;28;20352;-71
2020/12/04 11:08:34;;;;;;;23.75;18.83;;;5.30;1.00;;;;;;5017124;28;20233;-71
2020/12/04 11:11:00;;;;;;;20.98;17.38;;;5.40;1.00;;;;;;5035654;28;20237;-73
2020/12/04 11:13:26;;;;;;;22.48;18.92;;;5.30;1.00;;;;;;5018416;28;20737;-71
2020/12/04 11:15:52;;;;;;;22.35;18.60;;;5.40;1.00;;;;;;5039418;28;21285;-72
2020/12/04 11:18:19;;;;;;;25.52;18.77;;;5.30;1.00;;;;;;5026880;28;21594;-72
2020/12/04 11:20:45;;;;;;;19.77;16.60;;;5.30;1.00;;;;;;5019397;28;20230;-73
2020/12/04 11:23:11;;;;;;;22.10;17.75;;;5.40;1.00;;;;;;5027910;28;20236;-77
2020/12/04 11:25:38;;;;;;;19.23;15.80;;;5.40;1.00;;;;;;5021324;28;20304;-72
2020/12/04 11:28:05;;;;;;;20.20;16.88;;;5.40;1.00;;;;;;5009958;28;20250;-74
2020/12/04 11:30:31;;;;;;;21.80;16.63;;;5.30;1.00;;;;;;5011969;28;20261;-73
2020/12/04 11:32:57;;;;;;;21.67;17.45;;;5.30;1.00;;;;;;5026287;28;20331;-73
2020/12/04 11:35:23;;;;;;;19.48;16.27;;;5.40;1.00;;;;;;5014340;28;20241;-76
2020/12/04 11:37:50;;;;;;;22.05;17.45;;;5.40;1.00;;;;;;5027863;28;20214;-73
2020/12/04 11:40:18;;;;;;;19.52;16.17;;;5.60;1.00;;;;;;5014591;28;20313;-73
2020/12/04 11:42:46;;;;;;;22.35;17.58;;;5.70;1.00;;;;;;5022647;28;21054;-73
2020/12/04 11:45:14;;;;;;;21.38;16.80;;;5.80;1.00;;;;;;5016662;28;20233;-73
2020/12/04 11:47:42;;;;;;;22.05;16.05;;;5.90;1.00;;;;;;5014073;28;20223;-74
2020/12/04 11:50:10;;;;;;;18.23;15.82;;;6.00;1.00;;;;;;5006473;28;20237;-71
2020/12/04 11:52:36;;;;;;;21.90;17.05;;;5.90;1.00;;;;;;5038332;28;20222;-73
2020/12/04 11:55:04;;;;;;;21.75;17.42;;;5.90;1.00;;;;;;5010596;28;20234;-73
2020/12/04 11:57:30;;;;;;;21.13;18.25;;;6.10;1.00;;;;;;5026321;28;20226;-72
2020/12/04 11:59:57;;;;;;;21.73;17.25;;;6.00;1.00;;;;;;5017319;28;20248;-73
2020/12/04 12:02:24;;;;;;;21.38;16.60;;;6.10;1.00;;;;;;5038399;28;20729;-71
2020/12/04 12:04:50;;;;;;;21.35;15.77;;;6.20;1.00;;;;;;5018148;28;20238;-72
2020/12/04 12:07:17;;;;;;;24.00;18.08;;;6.20;1.00;;;;;;5035768;28;20232;-74
2020/12/04 12:09:47;;;;;;;20.83;17.67;;;6.10;1.00;;;;;;5048567;28;20222;-73
2020/12/04 12:12:14;;;;;;;19.48;15.73;;;6.10;1.00;;;;;;5022711;28;20297;-73
2020/12/04 12:14:40;;;;;;;20.73;16.30;;;6.20;1.00;;;;;;5034577;28;20240;-73
2020/12/04 12:17:07;;;;;;;18.77;16.42;;;6.30;1.00;;;;;;5035992;28;20305;-72
2020/12/04 12:19:34;;;;;;;19.83;16.13;;;6.30;1.00;;;;;;5044280;28;20230;-73
2020/12/04 12:22:00;;;;;;;19.23;16.05;;;6.30;1.00;;;;;;5030172;28;20241;-73
2020/12/04 12:24:26;;;;;;;22.08;17.52;;;5.90;1.00;;;;;;5050717;28;20227;-73
2020/12/04 12:26:53;;;;;;;21.67;18.00;;;5.90;1.00;;;;;;5041743;28;20253;-74
2020/12/04 12:29:19;;;;;;;20.15;18.05;;;5.90;1.00;;;;;;5020267;28;20218;-73
2020/12/04 12:31:45;;;;;;;20.92;16.85;;;5.90;1.00;;;;;;5018214;28;20221;-74
2020/12/04 12:34:12;;;;;;;19.75;16.30;;;5.90;1.00;;;;;;5011176;28;21413;-73
2020/12/04 12:36:39;;;;;;;22.23;17.15;;;5.90;1.00;;;;;;4999930;28;20273;-74
2020/12/04 12:39:08;;;;;;;21.65;17.95;;;5.80;1.00;;;;;;5026919;28;20961;-75
2020/12/04 12:41:34;;;;;;;21.45;18.50;;;5.80;1.00;;;;;;5002469;28;20268;-75